createdAt,value
2022-10-19T00:01:50.538Z,10.50
2022-10-19T00:04:17.804Z,10.40
2022-10-19T00:06:45.737Z,10.40
2022-10-19T00:09:17.587Z,10.40
2022-10-19T00:11:47.332Z,10.40
2022-10-19T00:14:18.308Z,10.40
2022-10-19T00:16:47.527Z,10.40
2022-10-19T00:19:22.494Z,10.40
2022-10-19T00:24:18.112Z,10.30
2022-10-19T00:26:45.827Z,10.30
2022-10-19T00:29:14.759Z,10.30
2022-10-19T00:31:42.140Z,10.30
2022-10-19T00:34:09.767Z,10.40
2022-10-19T00:36:39.826Z,10.40
2022-10-19T00:39:10.854Z,10.50
2022-10-19T00:41:38.661Z,10.60
2022-10-19T00:44:10.102Z,10.70
2022-10-19T00:46:40.239Z,10.70
2022-10-19T00:49:13.930Z,10.70
2022-10-19T00:51:45.052Z,10.80
2022-10-19T00:54:12.547Z,10.80
2022-10-19T00:56:42.495Z,10.80
2022-10-19T00:59:10.501Z,10.80
2022-10-19T01:01:38.699Z,10.80
2022-10-19T01:04:06.006Z,10.80
2022-10-19T01:06:34.051Z,10.90
2022-10-19T01:09:01.235Z,11.00
2022-10-19T01:11:32.725Z,11.10
2022-10-19T01:14:32.695Z,11.10
2022-10-19T01:17:11.362Z,11.20
2022-10-19T01:19:49.205Z,11.20
2022-10-19T01:22:28.549Z,11.20
2022-10-19T01:25:22.139Z,11.30
2022-10-19T01:28:13.744Z,11.30
2022-10-19T01:31:16.819Z,11.30
2022-10-19T01:34:03.963Z,11.30
2022-10-19T01:36:42.437Z,11.40
2022-10-19T01:39:28.386Z,11.40
2022-10-19T01:42:11.225Z,11.40
2022-10-19T01:44:46.806Z,11.40
2022-10-19T01:47:20.365Z,11.50
2022-10-19T01:49:52.045Z,11.50
2022-10-19T01:52:21.501Z,11.50
2022-10-19T01:54:52.202Z,11.50
2022-10-19T01:57:28.353Z,11.50
2022-10-19T01:59:57.603Z,11.50
2022-10-19T02:02:28.019Z,11.50
2022-10-19T02:04:57.017Z,11.50
2022-10-19T02:07:26.065Z,11.50
2022-10-19T02:09:53.179Z,11.60
2022-10-19T02:12:21.431Z,11.50
2022-10-19T02:14:53.842Z,11.50
2022-10-19T02:17:26.514Z,11.50
2022-10-19T02:19:54.806Z,11.50
2022-10-19T02:22:22.299Z,11.40
2022-10-19T02:24:49.533Z,11.40
2022-10-19T02:27:17.455Z,11.30
2022-10-19T02:29:44.876Z,11.30
2022-10-19T02:32:12.872Z,11.20
2022-10-19T02:34:40.626Z,11.10
2022-10-19T02:37:08.099Z,11.10
2022-10-19T02:39:35.332Z,11.10
2022-10-19T02:42:06.578Z,11.00
2022-10-19T02:44:43.282Z,11.00
2022-10-19T02:47:17.843Z,10.90
2022-10-19T02:49:45.382Z,10.80
2022-10-19T02:52:13.982Z,10.80
2022-10-19T02:54:43.371Z,10.70
2022-10-19T02:57:24.368Z,10.70
2022-10-19T02:59:52.473Z,10.70
2022-10-19T03:02:21.242Z,10.70
2022-10-19T03:07:20.011Z,10.70
2022-10-19T03:09:47.235Z,10.60
2022-10-19T03:12:15.095Z,10.70
2022-10-19T03:14:42.750Z,10.50
2022-10-19T03:17:10.409Z,10.30
2022-10-19T03:19:37.947Z,10.30
2022-10-19T03:22:05.396Z,10.30
2022-10-19T03:24:33.222Z,10.30
2022-10-19T03:27:00.339Z,10.30
2022-10-19T03:29:27.732Z,10.40
2022-10-19T03:31:54.798Z,10.40
2022-10-19T03:34:21.894Z,10.50
2022-10-19T03:36:49.094Z,10.50
2022-10-19T03:39:17.120Z,10.50
2022-10-19T03:41:44.378Z,10.60
2022-10-19T03:44:11.557Z,10.60
2022-10-19T03:46:39.358Z,10.70
2022-10-19T03:49:07.023Z,10.70
2022-10-19T03:51:35.346Z,10.60
2022-10-19T03:54:05.828Z,10.70
2022-10-19T03:56:34.541Z,10.60
2022-10-19T03:59:04.203Z,10.50
2022-10-19T04:01:35.951Z,10.50
2022-10-19T04:04:06.135Z,10.50
2022-10-19T04:06:37.972Z,10.50
2022-10-19T04:09:07.426Z,10.40
2022-10-19T04:11:35.734Z,10.40
2022-10-19T04:14:03.059Z,10.40
2022-10-19T04:16:31.398Z,10.30
2022-10-19T04:18:59.202Z,10.30
2022-10-19T04:21:30.604Z,10.30
2022-10-19T04:24:01.407Z,10.30
2022-10-19T04:26:29.457Z,10.40
2022-10-19T04:28:59.112Z,10.30
2022-10-19T04:31:27.259Z,10.30
2022-10-19T04:33:54.733Z,10.30
2022-10-19T04:36:22.353Z,10.20
2022-10-19T04:38:49.501Z,10.20
2022-10-19T04:41:19.821Z,10.20
2022-10-19T04:43:48.031Z,10.20
2022-10-19T04:46:17.900Z,10.20
2022-10-19T04:48:46.355Z,10.20
2022-10-19T04:51:14.512Z,10.20
2022-10-19T04:53:42.944Z,10.10
2022-10-19T04:56:16.133Z,10.10
2022-10-19T04:58:43.816Z,10.10
2022-10-19T05:01:12.959Z,10.10
2022-10-19T05:03:40.657Z,10.10
2022-10-19T05:06:08.559Z,10.10
2022-10-19T05:08:37.012Z,10.10
2022-10-19T05:11:07.268Z,10.10
2022-10-19T05:13:35.185Z,10.20
2022-10-19T05:16:04.324Z,10.20
2022-10-19T05:18:31.849Z,10.20
2022-10-19T05:21:09.039Z,10.30
2022-10-19T05:23:36.174Z,10.30
2022-10-19T05:26:08.371Z,10.40
2022-10-19T05:28:36.734Z,10.40
2022-10-19T05:31:07.508Z,10.40
2022-10-19T05:33:35.065Z,10.50
2022-10-19T05:36:19.599Z,10.50
2022-10-19T05:38:50.473Z,10.60
2022-10-19T05:41:17.814Z,10.60
2022-10-19T05:43:46.240Z,10.70
2022-10-19T05:46:18.319Z,10.70
2022-10-19T05:48:46.495Z,10.80
2022-10-19T05:51:17.159Z,10.80
2022-10-19T05:53:44.435Z,10.90
2022-10-19T05:56:23.032Z,11.00
2022-10-19T05:58:50.319Z,11.10
2022-10-19T06:01:19.854Z,11.20
2022-10-19T06:03:48.076Z,11.30
2022-10-19T06:06:15.115Z,11.50
2022-10-19T06:08:42.463Z,11.70
2022-10-19T06:11:14.358Z,12.00
2022-10-19T06:13:43.069Z,12.50
2022-10-19T06:16:12.263Z,13.40
2022-10-19T06:18:40.385Z,14.10
2022-10-19T06:21:10.749Z,14.20
2022-10-19T06:23:38.373Z,14.40
2022-10-19T06:26:08.522Z,15.00
2022-10-19T06:28:36.910Z,15.50
2022-10-19T06:31:07.163Z,15.60
2022-10-19T06:33:36.390Z,15.50
2022-10-19T06:36:08.446Z,15.60
2022-10-19T06:38:35.706Z,16.30
2022-10-19T06:41:03.131Z,17.40
2022-10-19T06:43:30.280Z,18.80
2022-10-19T06:45:57.603Z,20.00
2022-10-19T06:48:24.947Z,21.20
2022-10-19T06:50:58.435Z,22.10
2022-10-19T06:53:25.998Z,23.20
2022-10-19T06:55:53.381Z,23.80
2022-10-19T06:58:20.475Z,24.10
2022-10-19T07:00:57.291Z,24.80
2022-10-19T07:03:25.783Z,24.80
2022-10-19T07:05:54.799Z,25.20
2022-10-19T07:08:22.389Z,25.90
2022-10-19T07:10:54.765Z,26.20
2022-10-19T07:13:22.716Z,26.80
2022-10-19T07:15:50.205Z,26.80
2022-10-19T07:18:17.535Z,26.80
2022-10-19T07:20:55.556Z,27.30
2022-10-19T07:23:22.903Z,27.70
2022-10-19T07:25:50.035Z,28.30
2022-10-19T07:28:17.192Z,28.70
2022-10-19T07:30:44.343Z,28.50
2022-10-19T07:33:11.625Z,28.20
2022-10-19T07:35:38.851Z,27.20
2022-10-19T07:38:05.929Z,26.30
2022-10-19T07:40:33.098Z,25.10
2022-10-19T07:43:00.181Z,25.40
2022-10-19T07:45:27.332Z,26.00
2022-10-19T07:47:54.439Z,26.60
2022-10-19T07:50:24.820Z,26.90
2022-10-19T07:52:52.828Z,27.90
2022-10-19T07:55:20.019Z,28.30
2022-10-19T07:57:48.719Z,29.10
2022-10-19T08:00:17.803Z,29.60
2022-10-19T08:03:18.958Z,29.00
2022-10-19T08:05:34.063Z,27.60
2022-10-19T08:08:01.345Z,25.60
2022-10-19T08:10:28.598Z,24.10
2022-10-19T08:12:55.741Z,23.90
2022-10-19T08:15:22.903Z,24.10
2022-10-19T08:17:50.068Z,24.90
2022-10-19T08:20:17.160Z,24.90
2022-10-19T08:22:45.395Z,24.70
2022-10-19T08:25:12.495Z,23.80
2022-10-19T08:27:39.593Z,23.10
2022-10-19T08:30:07.791Z,22.90
2022-10-19T08:32:35.116Z,22.60
2022-10-19T08:35:05.034Z,23.70
2022-10-19T08:37:44.124Z,25.60
2022-10-19T08:40:23.673Z,27.10
2022-10-19T08:43:10.677Z,28.20
2022-10-19T08:45:57.672Z,28.70
2022-10-19T08:48:36.857Z,29.50
2022-10-19T08:51:06.437Z,30.10
2022-10-19T08:53:46.165Z,30.30
2022-10-19T08:56:45.674Z,29.50
2022-10-19T08:59:12.564Z,29.10
2022-10-19T09:01:49.887Z,28.10
2022-10-19T09:04:17.010Z,27.50
2022-10-19T09:07:07.375Z,28.00
2022-10-19T09:09:41.095Z,27.40
2022-10-19T09:12:12.875Z,26.70
2022-10-19T09:15:01.009Z,27.10
2022-10-19T09:17:28.883Z,27.80
2022-10-19T09:19:56.827Z,28.50
2022-10-19T09:22:32.709Z,28.70
2022-10-19T09:25:10.086Z,29.10
2022-10-19T09:27:40.266Z,29.20
2022-10-19T09:30:19.441Z,29.20
2022-10-19T09:32:48.819Z,29.40
2022-10-19T09:35:37.563Z,29.40
2022-10-19T09:38:07.400Z,29.10
2022-10-19T09:40:35.666Z,29.10
2022-10-19T09:43:19.662Z,28.90
2022-10-19T09:45:46.766Z,28.70
2022-10-19T09:48:25.466Z,28.70
2022-10-19T09:50:57.890Z,28.50
2022-10-19T09:53:26.825Z,28.20
2022-10-19T09:56:18.527Z,28.20
2022-10-19T09:58:52.061Z,28.10
2022-10-19T10:01:43.257Z,27.90
2022-10-19T10:04:15.340Z,27.40
2022-10-19T10:06:44.740Z,26.60
2022-10-19T10:09:18.248Z,26.40
2022-10-19T10:11:49.689Z,25.90
2022-10-19T10:14:30.647Z,25.50
2022-10-19T10:17:03.909Z,25.40
2022-10-19T10:19:33.092Z,25.20
2022-10-19T10:22:00.592Z,24.80
2022-10-19T10:24:30.306Z,24.70
2022-10-19T10:27:00.317Z,24.40
2022-10-19T10:29:31.219Z,24.50
2022-10-19T10:32:05.111Z,24.40
2022-10-19T10:34:58.560Z,24.40
2022-10-19T10:37:45.464Z,24.50
2022-10-19T10:40:23.602Z,24.50
2022-10-19T10:42:53.606Z,24.30
2022-10-19T10:45:43.136Z,24.30
2022-10-19T10:48:19.311Z,24.30
2022-10-19T10:50:46.660Z,24.00
2022-10-19T10:53:34.715Z,23.80
2022-10-19T10:56:02.230Z,24.00
2022-10-19T10:58:31.895Z,24.10
2022-10-19T11:01:06.572Z,24.10
2022-10-19T11:03:37.647Z,24.10
2022-10-19T11:06:04.903Z,23.90
2022-10-19T11:08:57.028Z,23.80
2022-10-19T11:11:46.198Z,23.60
2022-10-19T11:14:33.540Z,23.50
2022-10-19T11:17:17.052Z,23.50
2022-10-19T11:19:45.371Z,23.80
2022-10-19T11:22:41.045Z,23.70
2022-10-19T11:25:12.555Z,23.50
2022-10-19T11:27:55.700Z,23.20
2022-10-19T11:30:25.085Z,23.40
2022-10-19T11:33:12.062Z,23.50
2022-10-19T11:36:00.136Z,23.20
2022-10-19T11:38:30.221Z,22.70
2022-10-19T11:41:26.973Z,22.60
2022-10-19T11:44:05.160Z,22.50
2022-10-19T11:46:42.943Z,22.60
2022-10-19T11:49:11.100Z,22.40
2022-10-19T11:51:44.012Z,22.40
2022-10-19T11:54:30.945Z,22.50
2022-10-19T11:57:06.347Z,22.60
2022-10-19T11:59:36.475Z,22.90
2022-10-19T12:02:19.607Z,22.80
2022-10-19T12:05:00.504Z,22.50
2022-10-19T12:08:00.216Z,22.50
2022-10-19T12:10:40.679Z,22.50
2022-10-19T12:13:15.026Z,22.60
2022-10-19T12:15:49.945Z,22.50
2022-10-19T12:18:35.461Z,22.60
2022-10-19T12:21:09.943Z,22.40
2022-10-19T12:23:39.965Z,22.60
2022-10-19T12:26:10.245Z,22.60
2022-10-19T12:28:40.835Z,23.00
2022-10-19T12:31:09.757Z,23.00
2022-10-19T12:33:36.865Z,22.90
2022-10-19T12:36:23.827Z,22.60
2022-10-19T12:39:00.239Z,22.40
2022-10-19T12:41:53.248Z,22.10
2022-10-19T12:44:35.924Z,22.00
2022-10-19T12:47:10.479Z,21.80
2022-10-19T12:49:43.589Z,22.10
2022-10-19T12:52:12.152Z,22.10
2022-10-19T12:54:42.147Z,22.00
2022-10-19T12:57:29.721Z,21.90
2022-10-19T13:00:01.624Z,21.60
2022-10-19T13:05:00.763Z,21.10
2022-10-19T13:07:31.253Z,21.10
2022-10-19T13:10:02.853Z,20.90
2022-10-19T13:12:43.749Z,20.70
2022-10-19T13:15:34.178Z,20.60
2022-10-19T13:18:12.115Z,20.70
2022-10-19T13:23:11.129Z,20.60
2022-10-19T13:25:39.404Z,20.40
2022-10-19T13:28:06.457Z,20.40
2022-10-19T13:30:38.279Z,20.40
2022-10-19T13:33:27.308Z,20.30
2022-10-19T13:36:02.685Z,20.30
2022-10-19T13:38:32.955Z,20.30
2022-10-19T13:41:05.096Z,20.30
2022-10-19T13:43:54.841Z,20.30
2022-10-19T13:46:30.244Z,20.20
2022-10-19T13:49:32.761Z,20.00
2022-10-19T13:52:23.344Z,20.00
2022-10-19T13:55:08.915Z,19.90
2022-10-19T13:57:57.010Z,19.90
2022-10-19T14:00:50.885Z,19.90
2022-10-19T14:03:26.535Z,19.80
2022-10-19T14:06:16.905Z,19.70
2022-10-19T14:09:14.232Z,19.70
2022-10-19T14:11:44.258Z,19.70
2022-10-19T14:14:11.385Z,19.60
2022-10-19T14:16:50.333Z,19.70
2022-10-19T14:19:26.947Z,19.60
2022-10-19T14:21:57.796Z,19.70
2022-10-19T14:24:36.029Z,19.50
2022-10-19T14:27:07.331Z,19.40
2022-10-19T14:29:45.157Z,19.40
2022-10-19T14:32:14.102Z,19.40
2022-10-19T14:34:45.187Z,19.40
2022-10-19T14:37:24.224Z,19.40
2022-10-19T14:40:32.062Z,19.30
2022-10-19T14:43:02.253Z,19.20
2022-10-19T14:45:32.473Z,19.20
2022-10-19T14:48:04.602Z,19.10
2022-10-19T14:50:42.078Z,19.00
2022-10-19T14:53:20.648Z,19.00
2022-10-19T14:55:50.294Z,18.90
2022-10-19T14:58:22.397Z,18.90
2022-10-19T15:00:51.498Z,18.90
2022-10-19T15:03:26.191Z,18.80
2022-10-19T15:06:00.736Z,18.80
2022-10-19T15:08:35.093Z,18.80
2022-10-19T15:11:02.531Z,18.70
2022-10-19T15:13:36.513Z,18.60
2022-10-19T15:16:03.751Z,18.50
2022-10-19T15:18:49.648Z,18.50
2022-10-19T15:21:22.136Z,18.50
2022-10-19T15:23:52.610Z,18.40
2022-10-19T15:26:29.328Z,18.30
2022-10-19T15:29:10.172Z,18.20
2022-10-19T15:31:37.944Z,18.20
2022-10-19T15:34:07.753Z,18.10
2022-10-19T15:36:34.847Z,18.10
2022-10-19T15:39:18.344Z,18.00
2022-10-19T15:41:51.904Z,17.90
2022-10-19T15:44:42.705Z,17.70
2022-10-19T15:47:23.247Z,17.60
2022-10-19T15:49:52.473Z,17.50
2022-10-19T15:52:21.158Z,17.40
2022-10-19T15:54:49.845Z,17.30
2022-10-19T15:57:35.903Z,17.10
2022-10-19T16:00:13.505Z,17.10
2022-10-19T16:02:40.971Z,16.90
2022-10-19T16:05:08.649Z,16.80
2022-10-19T16:07:39.269Z,16.60
2022-10-19T16:10:08.126Z,16.50
2022-10-19T16:12:35.285Z,16.40
2022-10-19T16:15:02.581Z,16.20
2022-10-19T16:17:29.722Z,16.10
2022-10-19T16:19:58.584Z,16.10
2022-10-19T16:22:27.804Z,16.00
2022-10-19T16:24:56.520Z,15.90
2022-10-19T16:27:25.403Z,15.80
2022-10-19T16:29:55.944Z,15.70
2022-10-19T16:32:23.225Z,15.60
2022-10-19T16:34:50.302Z,15.60
2022-10-19T16:37:17.600Z,15.60
2022-10-19T16:39:44.781Z,15.50
2022-10-19T16:42:15.974Z,15.40
2022-10-19T16:44:45.521Z,15.30
2022-10-19T16:47:13.611Z,15.30
2022-10-19T16:49:40.823Z,15.20
2022-10-19T16:52:08.125Z,15.10
2022-10-19T16:54:35.269Z,15.10
2022-10-19T16:57:07.173Z,15.00
2022-10-19T16:59:36.960Z,14.90
2022-10-19T17:02:04.150Z,14.80
2022-10-19T17:04:31.423Z,14.70
2022-10-19T17:06:58.545Z,14.60
2022-10-19T17:09:42.599Z,14.40
2022-10-19T17:12:11.291Z,14.30
2022-10-19T17:14:40.832Z,14.20
2022-10-19T17:17:09.913Z,14.10
2022-10-19T17:19:39.743Z,14.00
2022-10-19T17:22:10.646Z,13.90
2022-10-19T17:24:39.442Z,13.90
2022-10-19T17:27:06.890Z,13.80
2022-10-19T17:29:34.773Z,13.70
2022-10-19T17:32:02.774Z,13.60
2022-10-19T17:34:29.944Z,13.60
2022-10-19T17:36:57.170Z,13.50
2022-10-19T17:39:29.135Z,13.50
2022-10-19T17:42:02.297Z,13.50
2022-10-19T17:44:30.812Z,13.50
2022-10-19T17:47:03.561Z,13.60
2022-10-19T17:49:31.473Z,13.60
2022-10-19T17:51:58.897Z,13.60
2022-10-19T17:54:26.809Z,13.70
2022-10-19T17:56:55.468Z,13.80
2022-10-19T17:59:34.953Z,13.80
2022-10-19T18:02:04.067Z,13.90
2022-10-19T18:04:31.325Z,14.00
2022-10-19T18:06:58.513Z,14.00
2022-10-19T18:09:25.708Z,14.00
2022-10-19T18:11:52.871Z,14.10
2022-10-19T18:14:20.732Z,14.10
2022-10-19T18:16:48.133Z,14.10
2022-10-19T18:19:16.798Z,14.10
2022-10-19T18:21:46.180Z,14.20
2022-10-19T18:24:20.340Z,14.20
2022-10-19T18:26:51.649Z,14.10
2022-10-19T18:29:22.678Z,14.00
2022-10-19T18:31:53.145Z,14.00
2022-10-19T18:34:24.416Z,13.90
2022-10-19T18:36:52.584Z,13.80
2022-10-19T18:39:20.991Z,13.80
2022-10-19T18:41:52.394Z,13.70
2022-10-19T18:44:25.161Z,13.60
2022-10-19T18:46:55.730Z,13.60
2022-10-19T18:49:24.333Z,13.60
2022-10-19T18:51:55.124Z,13.50
2022-10-19T18:54:29.001Z,13.50
2022-10-19T18:56:56.800Z,13.50
2022-10-19T19:01:55.599Z,13.50
2022-10-19T19:04:23.942Z,13.50
2022-10-19T19:06:52.635Z,13.60
2022-10-19T19:09:32.095Z,13.60
2022-10-19T19:12:02.416Z,13.60
2022-10-19T19:14:30.106Z,13.60
2022-10-19T19:16:58.793Z,13.70
2022-10-19T19:19:28.533Z,13.70
2022-10-19T19:22:05.093Z,13.80
2022-10-19T19:24:35.839Z,13.90
2022-10-19T19:27:07.553Z,13.90
2022-10-19T19:29:35.884Z,14.00
2022-10-19T19:32:04.598Z,14.10
2022-10-19T19:34:32.215Z,14.10
2022-10-19T19:36:59.879Z,14.10
2022-10-19T19:39:28.528Z,14.10
2022-10-19T19:41:58.360Z,14.10
2022-10-19T19:44:29.952Z,14.10
2022-10-19T19:46:58.818Z,14.10
2022-10-19T19:49:32.897Z,14.00
2022-10-19T19:52:01.104Z,13.90
2022-10-19T19:54:28.247Z,13.90
2022-10-19T19:56:55.838Z,13.90
2022-10-19T19:59:24.447Z,13.80
2022-10-19T20:01:53.223Z,13.80
2022-10-19T20:04:21.201Z,13.80
2022-10-19T20:06:48.477Z,13.70
2022-10-19T20:09:17.812Z,13.70
2022-10-19T20:11:46.770Z,13.60
2022-10-19T20:14:14.296Z,13.60
2022-10-19T20:16:44.354Z,13.50
2022-10-19T20:19:14.257Z,13.50
2022-10-19T20:21:48.907Z,13.40
2022-10-19T20:24:20.698Z,13.30
2022-10-19T20:26:51.357Z,13.30
2022-10-19T20:29:19.110Z,13.20
2022-10-19T20:31:46.365Z,13.20
2022-10-19T20:34:14.946Z,13.10
2022-10-19T20:36:42.797Z,13.00
2022-10-19T20:39:10.601Z,12.90
2022-10-19T20:41:41.470Z,12.90
2022-10-19T20:44:10.383Z,12.80
2022-10-19T20:46:37.783Z,12.70
2022-10-19T20:49:05.560Z,12.70
2022-10-19T20:51:36.622Z,12.70
2022-10-19T20:54:06.611Z,12.60
2022-10-19T20:56:36.349Z,12.70
2022-10-19T20:59:09.017Z,12.60
2022-10-19T21:01:38.419Z,12.50
2022-10-19T21:04:08.187Z,12.50
2022-10-19T21:06:39.673Z,12.50
2022-10-19T21:09:08.517Z,12.50
2022-10-19T21:11:38.565Z,12.50
2022-10-19T21:14:08.815Z,12.50
2022-10-19T21:16:37.998Z,12.50
2022-10-19T21:19:08.752Z,12.60
2022-10-19T21:21:41.332Z,12.70
2022-10-19T21:24:14.950Z,12.70
2022-10-19T21:26:42.546Z,12.70
2022-10-19T21:29:15.579Z,12.70
2022-10-19T21:31:48.635Z,12.70
2022-10-19T21:34:19.026Z,12.70
2022-10-19T21:36:47.023Z,12.60
2022-10-19T21:39:14.825Z,12.60
2022-10-19T21:41:42.065Z,12.50
2022-10-19T21:44:09.999Z,12.50
2022-10-19T21:46:37.197Z,12.50
2022-10-19T21:49:04.542Z,12.60
2022-10-19T21:51:54.095Z,12.50
2022-10-19T21:54:25.303Z,12.50
2022-10-19T21:56:53.596Z,12.60
2022-10-19T21:59:21.047Z,12.60
2022-10-19T22:01:48.557Z,12.50
2022-10-19T22:04:17.839Z,12.50
2022-10-19T22:06:45.887Z,12.50
2022-10-19T22:09:18.393Z,12.50
2022-10-19T22:11:47.088Z,12.50
2022-10-19T22:14:15.848Z,12.50
2022-10-19T22:16:43.549Z,12.50
2022-10-19T22:19:11.372Z,12.40
2022-10-19T22:24:13.870Z,12.40
2022-10-19T22:26:44.876Z,12.40
2022-10-19T22:29:12.094Z,12.40
2022-10-19T22:31:39.667Z,12.40
2022-10-19T22:34:10.784Z,12.40
2022-10-19T22:36:38.203Z,12.50
2022-10-19T22:39:06.940Z,12.40
2022-10-19T22:41:34.298Z,12.30
2022-10-19T22:44:01.578Z,12.30
2022-10-19T22:46:28.876Z,12.30
2022-10-19T22:48:56.246Z,12.30
2022-10-19T22:51:23.509Z,12.20
2022-10-19T22:53:50.907Z,12.20
2022-10-19T22:56:17.969Z,12.20
2022-10-19T22:58:45.458Z,12.20
2022-10-19T23:01:15.307Z,12.20
2022-10-19T23:03:42.703Z,12.20
2022-10-19T23:06:12.238Z,12.30
2022-10-19T23:08:39.934Z,12.20
2022-10-19T23:11:07.756Z,12.20
2022-10-19T23:13:35.249Z,12.20
2022-10-19T23:16:02.710Z,12.20
2022-10-19T23:18:32.618Z,12.20
2022-10-19T23:21:02.096Z,12.10
2022-10-19T23:23:31.138Z,12.20
2022-10-19T23:26:07.979Z,12.20
2022-10-19T23:28:36.963Z,12.20
2022-10-19T23:31:06.687Z,12.20
2022-10-19T23:33:34.875Z,12.20
2022-10-19T23:36:04.666Z,12.20
2022-10-19T23:38:32.153Z,12.20
2022-10-19T23:40:59.530Z,12.20
2022-10-19T23:43:26.907Z,12.20
2022-10-19T23:45:54.221Z,12.20
2022-10-19T23:48:21.477Z,12.20
2022-10-19T23:51:05.926Z,12.20
2022-10-19T23:53:37.081Z,12.20
2022-10-19T23:56:10.634Z,12.20
2022-10-19T23:58:37.842Z,12.20
